createdAt,value
2018-07-14T00:01:15.264Z,1014.81
2018-07-14T00:04:11.727Z,1014.80
2018-07-14T00:05:11.402Z,1014.77
2018-07-14T00:07:07.192Z,1014.77
2018-07-14T00:09:24.591Z,1014.77
2018-07-14T00:10:23.200Z,1014.75
2018-07-14T00:12:20.935Z,1014.72
2018-07-14T00:13:19.073Z,1014.73
2018-07-14T00:15:15.189Z,1014.70
2018-07-14T00:16:15.157Z,1014.70
2018-07-14T00:18:09.589Z,1014.68
2018-07-14T00:19:10.127Z,1014.68
2018-07-14T00:21:03.993Z,1014.66
2018-07-14T00:22:04.592Z,1014.66
2018-07-14T00:23:59.464Z,1014.68
2018-07-14T00:24:58.685Z,1014.70
2018-07-14T00:26:55.651Z,1014.66
2018-07-14T00:27:55.150Z,1014.69
2018-07-14T00:29:51.244Z,1014.71
2018-07-14T00:30:50.629Z,1014.67
2018-07-14T00:32:51.601Z,1014.70
2018-07-14T00:33:47.448Z,1014.74
2018-07-14T00:35:43.909Z,1014.78
2018-07-14T00:36:42.112Z,1014.74
2018-07-14T00:38:42.104Z,1014.75
2018-07-14T00:39:37.995Z,1014.73
2018-07-14T00:41:34.456Z,1014.70
2018-07-14T00:42:35.459Z,1014.71
2018-07-14T00:44:27.906Z,1014.74
2018-07-14T00:45:27.401Z,1014.77
2018-07-14T00:47:24.362Z,1014.80
2018-07-14T00:48:23.872Z,1014.80
2018-07-14T00:50:20.434Z,1014.79
2018-07-14T00:51:19.304Z,1014.79
2018-07-14T00:53:15.796Z,1014.82
2018-07-14T00:54:15.769Z,1014.80
2018-07-14T00:56:09.738Z,1014.81
2018-07-14T00:57:09.711Z,1014.77
2018-07-14T00:59:07.170Z,1014.80
2018-07-14T01:00:05.936Z,1014.79
2018-07-14T01:02:02.122Z,1014.77
2018-07-14T01:03:01.611Z,1014.77
2018-07-14T01:04:58.083Z,1014.76
2018-07-14T01:05:57.567Z,1014.77
2018-07-14T01:07:53.523Z,1014.81
2018-07-14T01:08:53.514Z,1014.81
2018-07-14T01:10:48.485Z,1014.85
2018-07-14T01:11:48.001Z,1014.90
2018-07-14T01:13:46.481Z,1014.90
2018-07-14T01:14:46.100Z,1014.89
2018-07-14T01:16:41.564Z,1014.91
2018-07-14T01:17:41.085Z,1014.93
2018-07-14T01:19:35.019Z,1014.92
2018-07-14T01:20:34.992Z,1014.90
2018-07-14T01:22:30.964Z,1014.93
2018-07-14T01:23:30.955Z,1014.89
2018-07-14T01:25:27.917Z,1014.86
2018-07-14T01:26:26.925Z,1014.87
2018-07-14T01:28:23.381Z,1014.89
2018-07-14T01:29:22.890Z,1014.86
2018-07-14T01:31:19.851Z,1014.86
2018-07-14T01:32:19.356Z,1014.88
2018-07-14T01:34:14.808Z,1014.88
2018-07-14T01:35:14.782Z,1014.89
2018-07-14T01:37:11.233Z,1014.91
2018-07-14T01:38:10.737Z,1014.90
2018-07-14T01:40:07.699Z,1014.91
2018-07-14T01:41:07.703Z,1014.89
2018-07-14T01:43:03.183Z,1014.92
2018-07-14T01:44:03.673Z,1014.90
2018-07-14T01:45:58.662Z,1014.89
2018-07-14T01:46:58.683Z,1014.89
2018-07-14T01:48:55.103Z,1014.86
2018-07-14T01:49:54.603Z,1014.88
2018-07-14T01:51:49.058Z,1014.88
2018-07-14T01:52:50.485Z,1014.87
2018-07-14T01:54:43.521Z,1014.88
2018-07-14T01:55:44.016Z,1014.91
2018-07-14T01:57:39.454Z,1014.98
2018-07-14T01:58:39.468Z,1015.01
2018-07-14T02:00:36.938Z,1014.97
2018-07-14T02:01:35.426Z,1014.98
2018-07-14T02:03:29.856Z,1014.99
2018-07-14T02:04:29.846Z,1014.96
2018-07-14T02:06:24.814Z,1014.98
2018-07-14T02:07:24.290Z,1014.97
2018-07-14T02:09:20.763Z,1015.01
2018-07-14T02:10:20.240Z,1014.96
2018-07-14T02:12:16.697Z,1015.01
2018-07-14T02:13:16.194Z,1015.01
2018-07-14T02:15:13.166Z,1015.01
2018-07-14T02:16:12.149Z,1015.01
2018-07-14T02:18:07.129Z,1015.02
2018-07-14T02:19:07.113Z,1015.05
2018-07-14T02:21:04.049Z,1015.04
2018-07-14T02:22:02.559Z,1015.05
2018-07-14T02:23:59.014Z,1015.05
2018-07-14T02:24:58.491Z,1015.07
2018-07-14T02:26:55.471Z,1015.08
2018-07-14T02:27:54.450Z,1015.08
2018-07-14T02:29:49.911Z,1015.07
2018-07-14T02:30:48.947Z,1015.08
2018-07-14T02:32:43.416Z,1015.08
2018-07-14T02:33:43.375Z,1015.07
2018-07-14T02:35:39.861Z,1015.08
2018-07-14T02:36:40.832Z,1015.10
2018-07-14T02:38:34.275Z,1015.15
2018-07-14T02:39:33.762Z,1015.12
2018-07-14T02:41:29.752Z,1015.14
2018-07-14T02:42:29.715Z,1015.12
2018-07-14T02:44:24.176Z,1015.05
2018-07-14T02:45:24.156Z,1015.10
2018-07-14T02:47:20.097Z,1015.10
2018-07-14T02:48:20.099Z,1015.05
2018-07-14T02:50:17.073Z,1015.05
2018-07-14T02:51:16.060Z,1015.04
2018-07-14T02:53:12.049Z,1015.07
2018-07-14T02:54:12.525Z,1015.04
2018-07-14T02:56:08.469Z,1015.04
2018-07-14T02:57:07.993Z,1015.02
2018-07-14T02:59:04.894Z,1015.06
2018-07-14T03:00:03.930Z,1015.08
2018-07-14T03:02:00.861Z,1015.07
2018-07-14T03:02:59.850Z,1015.08
2018-07-14T03:04:56.824Z,1015.13
2018-07-14T03:05:55.875Z,1015.09
2018-07-14T03:07:52.322Z,1015.10
2018-07-14T03:08:51.806Z,1015.09
2018-07-14T03:10:48.775Z,1015.11
2018-07-14T03:11:47.771Z,1015.13
2018-07-14T03:13:44.247Z,1015.07
2018-07-14T03:14:43.712Z,1015.07
2018-07-14T03:16:40.670Z,1015.07
2018-07-14T03:17:39.644Z,1015.08
2018-07-14T03:19:35.714Z,1015.05
2018-07-14T03:20:35.583Z,1015.05
2018-07-14T03:22:31.529Z,1015.06
2018-07-14T03:23:31.538Z,1015.04
2018-07-14T03:25:27.524Z,1015.03
2018-07-14T03:26:27.484Z,1015.06
2018-07-14T03:28:23.407Z,1015.06
2018-07-14T03:29:23.424Z,1015.08
2018-07-14T03:31:19.436Z,1015.08
2018-07-14T03:32:19.391Z,1015.06
2018-07-14T03:34:15.365Z,1015.05
2018-07-14T03:35:15.859Z,1015.08
2018-07-14T03:37:11.290Z,1015.04
2018-07-14T03:38:11.302Z,1015.05
2018-07-14T03:40:07.779Z,1015.06
2018-07-14T03:41:07.261Z,1015.04
2018-07-14T03:43:03.717Z,1015.04
2018-07-14T03:44:03.207Z,1015.04
2018-07-14T03:45:59.188Z,1015.06
2018-07-14T03:46:59.156Z,1015.05
2018-07-14T03:48:55.110Z,1015.06
2018-07-14T03:49:56.113Z,1015.08
2018-07-14T03:51:51.126Z,1015.06
2018-07-14T03:52:51.098Z,1015.04
2018-07-14T03:54:48.032Z,1015.08
2018-07-14T03:55:47.553Z,1015.06
2018-07-14T03:57:42.992Z,1015.03
2018-07-14T03:58:42.988Z,1015.05
2018-07-14T04:00:38.968Z,1015.06
2018-07-14T04:01:38.938Z,1015.06
2018-07-14T04:03:35.384Z,1015.03
2018-07-14T04:04:35.394Z,1015.05
2018-07-14T04:06:31.412Z,1015.06
2018-07-14T04:07:30.836Z,1015.04
2018-07-14T04:09:25.300Z,1015.04
2018-07-14T04:10:25.295Z,1015.05
2018-07-14T04:12:21.760Z,1015.05
2018-07-14T04:13:22.248Z,1015.09
2018-07-14T04:15:17.226Z,1015.09
2018-07-14T04:16:17.209Z,1015.04
2018-07-14T04:18:13.663Z,1015.08
2018-07-14T04:19:13.164Z,1015.05
2018-07-14T04:21:09.614Z,1015.07
2018-07-14T04:22:09.096Z,1015.03
2018-07-14T04:24:06.076Z,1015.09
2018-07-14T04:25:05.092Z,1015.10
2018-07-14T04:27:00.977Z,1015.12
2018-07-14T04:28:01.544Z,1015.07
2018-07-14T04:29:58.445Z,1015.06
2018-07-14T04:30:56.935Z,1015.06
2018-07-14T04:32:53.904Z,1015.05
2018-07-14T04:33:52.884Z,1015.05
2018-07-14T04:35:49.371Z,1015.08
2018-07-14T04:36:49.844Z,1015.09
2018-07-14T04:38:45.821Z,1015.12
2018-07-14T04:39:44.815Z,1015.18
2018-07-14T04:41:42.917Z,1015.19
2018-07-14T04:42:43.782Z,1015.21
2018-07-14T04:44:38.885Z,1015.23
2018-07-14T04:45:37.362Z,1015.25
2018-07-14T04:47:33.844Z,1015.27
2018-07-14T04:48:33.827Z,1015.31
2018-07-14T04:50:29.301Z,1015.32
2018-07-14T04:51:29.288Z,1015.31
2018-07-14T04:53:24.249Z,1015.32
2018-07-14T04:54:25.244Z,1015.33
2018-07-14T04:56:19.675Z,1015.27
2018-07-14T04:57:19.662Z,1015.29
2018-07-14T04:59:15.678Z,1015.30
2018-07-14T05:00:16.118Z,1015.35
2018-07-14T05:02:11.600Z,1015.38
2018-07-14T05:03:11.570Z,1015.36
2018-07-14T05:05:08.045Z,1015.36
2018-07-14T05:06:07.556Z,1015.40
2018-07-14T05:08:06.022Z,1015.34
2018-07-14T05:09:06.506Z,1015.34
2018-07-14T05:11:03.987Z,1015.32
2018-07-14T05:12:03.122Z,1015.36
2018-07-14T05:13:59.090Z,1015.38
2018-07-14T05:14:59.073Z,1015.40
2018-07-14T05:16:55.052Z,1015.38
2018-07-14T05:17:55.015Z,1015.38
2018-07-14T05:19:50.952Z,1015.33
2018-07-14T05:20:50.981Z,1015.32
2018-07-14T05:22:46.944Z,1015.38
2018-07-14T05:23:46.928Z,1015.37
2018-07-14T05:25:41.911Z,1015.38
2018-07-14T05:26:41.389Z,1015.35
2018-07-14T05:28:37.362Z,1015.37
2018-07-14T05:29:38.839Z,1015.38
2018-07-14T05:31:33.802Z,1015.37
2018-07-14T05:32:33.783Z,1015.40
2018-07-14T05:34:29.251Z,1015.38
2018-07-14T05:35:29.218Z,1015.37
2018-07-14T05:37:25.717Z,1015.39
2018-07-14T05:38:25.683Z,1015.41
2018-07-14T05:40:20.127Z,1015.39
2018-07-14T05:41:19.619Z,1015.39
2018-07-14T05:43:14.095Z,1015.42
2018-07-14T05:44:14.591Z,1015.39
2018-07-14T05:46:09.071Z,1015.40
2018-07-14T05:47:09.033Z,1015.44
2018-07-14T05:49:05.459Z,1015.44
2018-07-14T05:50:04.449Z,1015.43
2018-07-14T05:52:01.485Z,1015.49
2018-07-14T05:53:00.423Z,1015.51
2018-07-14T05:54:57.378Z,1015.52
2018-07-14T05:55:56.366Z,1015.55
2018-07-14T05:57:52.822Z,1015.59
2018-07-14T05:58:52.309Z,1015.61
2018-07-14T06:00:48.244Z,1015.60
2018-07-14T06:01:48.283Z,1015.60
2018-07-14T06:03:44.740Z,1015.59
2018-07-14T06:04:45.232Z,1015.64
2018-07-14T06:06:41.691Z,1015.65
2018-07-14T06:07:40.215Z,1015.62
2018-07-14T06:09:34.596Z,1015.63
2018-07-14T06:10:36.051Z,1015.66
2018-07-14T06:12:31.071Z,1015.66
2018-07-14T06:13:30.553Z,1015.69
2018-07-14T06:15:27.024Z,1015.65
2018-07-14T06:16:26.523Z,1015.69
2018-07-14T06:18:23.492Z,1015.69
2018-07-14T06:19:22.475Z,1015.67
2018-07-14T06:21:18.938Z,1015.67
2018-07-14T06:22:18.424Z,1015.65
2018-07-14T06:24:14.372Z,1015.63
2018-07-14T06:25:14.400Z,1015.65
2018-07-14T06:27:11.341Z,1015.59
2018-07-14T06:29:54.851Z,1015.61
2018-07-14T06:30:52.223Z,1015.56
2018-07-14T06:32:48.150Z,1015.63
2018-07-14T06:33:48.164Z,1015.60
2018-07-14T06:35:46.222Z,1015.62
2018-07-14T06:36:44.139Z,1015.63
2018-07-14T06:38:40.699Z,1015.65
2018-07-14T06:39:40.680Z,1015.67
2018-07-14T06:41:36.643Z,1015.68
2018-07-14T06:42:36.639Z,1015.73
2018-07-14T06:44:32.614Z,1015.69
2018-07-14T06:45:33.597Z,1015.70
2018-07-14T06:47:29.099Z,1015.69
2018-07-14T06:48:29.590Z,1015.65
2018-07-14T06:50:24.526Z,1015.71
2018-07-14T06:51:24.535Z,1015.68
2018-07-14T06:53:21.032Z,1015.71
2018-07-14T06:54:21.544Z,1015.73
2018-07-14T06:56:14.960Z,1015.73
2018-07-14T06:57:14.958Z,1015.73
2018-07-14T06:59:12.923Z,1015.67
2018-07-14T07:00:12.914Z,1015.69
2018-07-14T07:02:09.398Z,1015.71
2018-07-14T07:03:08.892Z,1015.70
2018-07-14T07:05:07.855Z,1015.72
2018-07-14T07:06:07.046Z,1015.69
2018-07-14T07:08:03.038Z,1015.68
2018-07-14T07:09:03.016Z,1015.67
2018-07-14T07:10:59.464Z,1015.68
2018-07-14T07:11:58.991Z,1015.69
2018-07-14T07:13:55.434Z,1015.71
2018-07-14T07:14:55.435Z,1015.71
2018-07-14T07:16:52.904Z,1015.75
2018-07-14T07:17:52.871Z,1015.75
2018-07-14T07:19:49.350Z,1015.76
2018-07-14T07:20:49.846Z,1015.76
2018-07-14T07:22:45.803Z,1015.77
2018-07-14T07:23:44.815Z,1015.81
2018-07-14T07:25:41.289Z,1015.79
2018-07-14T07:26:40.825Z,1015.79
2018-07-14T07:28:36.843Z,1015.76
2018-07-14T07:29:36.793Z,1015.73
2018-07-14T07:31:32.722Z,1015.74
2018-07-14T07:32:33.243Z,1015.76
2018-07-14T07:34:29.206Z,1015.78
2018-07-14T07:35:28.677Z,1015.78
2018-07-14T07:37:24.640Z,1015.78
2018-07-14T07:38:25.150Z,1015.82
2018-07-14T07:40:21.588Z,1015.88
2018-07-14T07:41:20.591Z,1015.83
2018-07-14T07:43:15.599Z,1015.85
2018-07-14T07:44:15.054Z,1015.84
2018-07-14T07:46:12.012Z,1015.87
2018-07-14T07:47:10.976Z,1015.85
2018-07-14T07:49:06.449Z,1015.82
2018-07-14T07:50:05.436Z,1015.84
2018-07-14T07:52:02.410Z,1015.80
2018-07-14T07:53:01.431Z,1015.86
2018-07-14T07:54:59.483Z,1015.81
2018-07-14T07:57:13.218Z,1015.78
2018-07-14T07:58:13.022Z,1015.77
2018-07-14T08:00:06.326Z,1015.78
2018-07-14T08:01:07.204Z,1015.79
2018-07-14T08:03:00.469Z,1015.81
2018-07-14T08:05:54.563Z,1015.78
2018-07-14T08:06:54.924Z,1015.75
2018-07-14T08:08:49.042Z,1015.77
2018-07-14T08:09:48.473Z,1015.76
2018-07-14T08:11:44.452Z,1015.73
2018-07-14T08:12:44.422Z,1015.76
2018-07-14T08:14:39.402Z,1015.78
2018-07-14T08:15:40.394Z,1015.74
2018-07-14T08:17:34.824Z,1015.73
2018-07-14T08:18:34.843Z,1015.70
2018-07-14T08:20:31.323Z,1015.73
2018-07-14T08:21:30.798Z,1015.72
2018-07-14T08:23:25.293Z,1015.70
2018-07-14T08:24:25.267Z,1015.74
2018-07-14T08:26:22.221Z,1015.70
2018-07-14T08:27:21.177Z,1015.71
2018-07-14T08:29:15.643Z,1015.68
2018-07-14T08:30:15.677Z,1015.69
2018-07-14T08:32:10.109Z,1015.62
2018-07-14T08:33:10.108Z,1015.68
2018-07-14T08:35:06.999Z,1015.60
2018-07-14T08:36:06.088Z,1015.67
2018-07-14T08:38:02.063Z,1015.64
2018-07-14T08:39:02.545Z,1015.61
2018-07-14T08:40:56.526Z,1015.63
2018-07-14T08:41:56.530Z,1015.65
2018-07-14T08:43:51.100Z,1015.65
2018-07-14T08:44:50.971Z,1015.63
2018-07-14T08:46:45.953Z,1015.63
2018-07-14T08:47:45.408Z,1015.64
2018-07-14T08:49:40.411Z,1015.64
2018-07-14T08:50:39.923Z,1015.60
2018-07-14T08:52:34.359Z,1015.62
2018-07-14T08:53:34.360Z,1015.62
2018-07-14T08:55:28.830Z,1015.60
2018-07-14T08:56:30.314Z,1015.55
2018-07-14T08:58:23.783Z,1015.57
2018-07-14T08:59:23.779Z,1015.56
2018-07-14T09:01:19.239Z,1015.53
2018-07-14T09:02:19.212Z,1015.54
2018-07-14T09:04:17.338Z,1015.53
2018-07-14T09:05:17.352Z,1015.48
2018-07-14T09:07:15.314Z,1015.54
2018-07-14T09:08:16.816Z,1015.53
2018-07-14T09:10:11.281Z,1015.50
2018-07-14T09:11:11.283Z,1015.46
2018-07-14T09:13:07.792Z,1015.48
2018-07-14T09:14:07.753Z,1015.44
2018-07-14T09:16:03.197Z,1015.48
2018-07-14T09:17:03.194Z,1015.48
2018-07-14T09:18:58.568Z,1015.42
2018-07-14T09:19:58.658Z,1015.47
2018-07-14T09:21:53.937Z,1015.45
2018-07-14T09:22:53.911Z,1015.41
2018-07-14T09:24:52.024Z,1015.39
2018-07-14T09:25:52.021Z,1015.42
2018-07-14T09:27:46.024Z,1015.42
2018-07-14T09:28:45.514Z,1015.41
2018-07-14T09:30:40.975Z,1015.40
2018-07-14T09:31:40.468Z,1015.33
2018-07-14T09:33:36.932Z,1015.37
2018-07-14T09:34:35.944Z,1015.36
2018-07-14T09:36:32.444Z,1015.36
2018-07-14T09:37:31.897Z,1015.36
2018-07-14T09:39:27.862Z,1015.32
2018-07-14T09:40:29.376Z,1015.30
2018-07-14T09:42:23.835Z,1015.28
2018-07-14T09:43:23.844Z,1015.30
2018-07-14T09:45:22.830Z,1015.27
2018-07-14T09:46:22.403Z,1015.24
2018-07-14T09:48:20.860Z,1015.21
2018-07-14T09:49:20.865Z,1015.29
2018-07-14T09:51:16.821Z,1015.26
2018-07-14T09:52:16.845Z,1015.26
2018-07-14T09:54:14.296Z,1015.26
2018-07-14T09:55:12.816Z,1015.25
2018-07-14T09:57:08.781Z,1015.20
2018-07-14T09:58:09.266Z,1015.22
2018-07-14T10:00:09.213Z,1015.21
2018-07-14T10:01:09.231Z,1015.15
2018-07-14T10:03:06.196Z,1015.15
2018-07-14T10:04:05.231Z,1015.18
2018-07-14T10:06:03.342Z,1015.13
2018-07-14T10:07:04.171Z,1015.12
2018-07-14T10:08:59.835Z,1015.13
2018-07-14T10:09:59.316Z,1015.12
2018-07-14T10:11:55.775Z,1015.11
2018-07-14T10:12:55.315Z,1015.07
2018-07-14T10:14:54.298Z,1015.07
2018-07-14T10:15:53.276Z,1014.97
2018-07-14T10:17:49.312Z,1014.98
2018-07-14T10:18:49.265Z,1015.02
2018-07-14T10:20:45.262Z,1015.06
2018-07-14T10:21:45.220Z,1015.03
2018-07-14T10:23:39.707Z,1015.02
2018-07-14T10:24:39.694Z,1015.01
2018-07-14T10:26:34.167Z,1015.03
2018-07-14T10:27:34.143Z,1015.05
2018-07-14T10:29:28.108Z,1014.98
2018-07-14T10:30:27.607Z,1014.97
2018-07-14T10:32:23.591Z,1014.99
2018-07-14T10:33:22.066Z,1015.02
2018-07-14T10:35:18.526Z,1014.96
2018-07-14T10:36:18.043Z,1014.96
2018-07-14T10:38:12.505Z,1014.93
2018-07-14T10:39:13.496Z,1014.92
2018-07-14T10:41:12.474Z,1014.95
2018-07-14T10:42:11.546Z,1014.92
2018-07-14T10:44:06.649Z,1014.90
2018-07-14T10:45:07.126Z,1014.94
2018-07-14T10:47:03.123Z,1014.93
2018-07-14T10:48:02.566Z,1014.94
2018-07-14T10:49:58.523Z,1014.87
2018-07-14T10:50:59.532Z,1014.90
2018-07-14T10:52:53.521Z,1014.86
2018-07-14T10:53:53.044Z,1014.83
2018-07-14T10:55:47.499Z,1014.84
2018-07-14T10:56:47.975Z,1014.83
2018-07-14T10:58:41.966Z,1014.78
2018-07-14T10:59:41.950Z,1014.78
2018-07-14T11:01:36.915Z,1014.75
2018-07-14T11:02:36.397Z,1014.79
2018-07-14T11:04:33.421Z,1014.64
2018-07-14T11:05:32.371Z,1014.67
2018-07-14T11:07:26.823Z,1014.63
2018-07-14T11:08:26.845Z,1014.63
2018-07-14T11:10:22.785Z,1014.60
2018-07-14T11:11:23.797Z,1014.57
2018-07-14T11:13:17.313Z,1014.54
2018-07-14T11:14:17.266Z,1014.56
2018-07-14T11:16:11.689Z,1014.56
2018-07-14T11:17:12.227Z,1014.58
2018-07-14T11:19:06.168Z,1014.52
2018-07-14T11:20:06.665Z,1014.52
2018-07-14T11:22:03.124Z,1014.49
2018-07-14T11:23:02.116Z,1014.51
2018-07-14T11:24:57.510Z,1014.60
2018-07-14T11:25:56.581Z,1014.58
2018-07-14T11:27:51.565Z,1014.56
2018-07-14T11:28:51.037Z,1014.58
2018-07-14T11:30:46.434Z,1014.51
2018-07-14T11:31:45.499Z,1014.52
2018-07-14T11:33:39.966Z,1014.54
2018-07-14T11:34:39.983Z,1014.57
2018-07-14T11:36:34.383Z,1014.56
2018-07-14T11:37:34.979Z,1014.55
2018-07-14T11:39:28.876Z,1014.52
2018-07-14T11:40:28.863Z,1014.48
2018-07-14T11:42:25.332Z,1014.47
2018-07-14T11:43:25.832Z,1014.44
2018-07-14T11:45:22.805Z,1014.32
2018-07-14T11:46:20.914Z,1014.33
2018-07-14T11:48:15.370Z,1014.37
2018-07-14T11:49:15.375Z,1014.34
2018-07-14T11:51:10.838Z,1014.37
2018-07-14T11:52:09.849Z,1014.33
2018-07-14T11:54:08.879Z,1014.36
2018-07-14T11:55:08.040Z,1014.36
2018-07-14T11:57:02.987Z,1014.39
2018-07-14T11:58:03.497Z,1014.37
2018-07-14T12:00:01.465Z,1014.37
2018-07-14T12:01:00.483Z,1014.36
2018-07-14T12:02:56.939Z,1014.31
2018-07-14T12:03:56.459Z,1014.29
2018-07-14T12:05:50.909Z,1014.29
2018-07-14T12:06:50.915Z,1014.31
2018-07-14T12:08:45.371Z,1014.30
2018-07-14T12:09:45.414Z,1014.28
2018-07-14T12:11:43.353Z,1014.24
2018-07-14T12:12:41.351Z,1014.17
2018-07-14T12:14:35.854Z,1014.25
2018-07-14T12:15:35.820Z,1014.23
2018-07-14T12:17:31.770Z,1014.24
2018-07-14T12:18:31.796Z,1014.23
2018-07-14T12:20:26.755Z,1014.25
2018-07-14T12:21:27.249Z,1014.24
2018-07-14T12:23:20.235Z,1014.23
2018-07-14T12:24:19.728Z,1014.24
2018-07-14T12:26:17.186Z,1014.20
2018-07-14T12:27:16.189Z,1014.23
2018-07-14T12:29:12.622Z,1014.22
2018-07-14T12:30:12.630Z,1014.23
2018-07-14T12:32:07.634Z,1014.19
2018-07-14T12:33:07.609Z,1014.20
2018-07-14T12:35:02.103Z,1014.18
2018-07-14T12:36:02.082Z,1014.14
2018-07-14T12:37:57.562Z,1014.10
2018-07-14T12:38:56.566Z,1014.11
2018-07-14T12:40:53.024Z,1014.06
2018-07-14T12:41:53.025Z,1014.06
2018-07-14T12:43:47.913Z,1014.05
2018-07-14T12:44:46.994Z,1014.02
2018-07-14T12:46:44.983Z,1014.03
2018-07-14T12:47:44.948Z,1014.05
2018-07-14T12:49:39.424Z,1013.99
2018-07-14T12:50:39.429Z,1014.02
2018-07-14T12:52:34.415Z,1014.06
2018-07-14T12:53:33.895Z,1014.08
2018-07-14T12:55:29.380Z,1014.03
2018-07-14T12:56:28.388Z,1013.95
2018-07-14T12:58:24.397Z,1013.96
2018-07-14T12:59:24.377Z,1013.95
2018-07-14T13:01:20.370Z,1013.89
2018-07-14T13:02:20.323Z,1013.85
2018-07-14T13:04:18.311Z,1013.85
2018-07-14T13:05:19.227Z,1013.84
2018-07-14T13:07:15.271Z,1013.83
2018-07-14T13:08:14.280Z,1013.85
2018-07-14T13:10:10.266Z,1013.75
2018-07-14T13:11:11.740Z,1013.78
2018-07-14T13:13:04.786Z,1013.84
2018-07-14T13:14:04.782Z,1013.83
2018-07-14T13:16:01.261Z,1013.80
2018-07-14T13:18:17.255Z,1013.74
2018-07-14T13:19:16.807Z,1013.79
2018-07-14T13:21:11.188Z,1013.74
2018-07-14T13:22:11.215Z,1013.74
2018-07-14T13:24:10.177Z,1013.75
2018-07-14T13:25:10.169Z,1013.68
2018-07-14T13:27:05.191Z,1013.70
2018-07-14T13:28:05.167Z,1013.75
2018-07-14T13:30:02.144Z,1013.68
2018-07-14T13:31:01.134Z,1013.68
2018-07-14T13:32:55.577Z,1013.54
2018-07-14T13:33:55.598Z,1013.68
2018-07-14T13:35:52.070Z,1013.71
2018-07-14T13:36:52.059Z,1013.72
2018-07-14T13:38:51.614Z,1013.71
2018-07-14T13:39:46.042Z,1013.72
2018-07-14T13:41:42.046Z,1013.66
2018-07-14T13:42:42.010Z,1013.64
2018-07-14T13:44:36.485Z,1013.62
2018-07-14T13:45:36.477Z,1013.59
2018-07-14T13:47:34.586Z,1013.53
2018-07-14T13:48:34.602Z,1013.53
2018-07-14T13:50:29.561Z,1013.58
2018-07-14T13:51:29.075Z,1013.58
2018-07-14T13:53:25.062Z,1013.56
2018-07-14T13:54:25.030Z,1013.57
2018-07-14T13:56:21.035Z,1013.51
2018-07-14T13:57:20.989Z,1013.51
2018-07-14T13:59:17.946Z,1013.45
2018-07-14T14:00:16.953Z,1013.46
2018-07-14T14:02:13.424Z,1013.46
2018-07-14T14:03:12.436Z,1013.40
2018-07-14T14:05:05.897Z,1013.51
2018-07-14T14:06:05.912Z,1013.45
2018-07-14T14:08:01.884Z,1013.47
2018-07-14T14:09:01.872Z,1013.38
2018-07-14T14:10:57.837Z,1013.43
2018-07-14T14:11:57.851Z,1013.43
2018-07-14T14:13:54.313Z,1013.34
2018-07-14T14:14:54.804Z,1013.41
2018-07-14T14:16:50.275Z,1013.41
2018-07-14T14:17:49.748Z,1013.36
2018-07-14T14:19:46.250Z,1013.41
2018-07-14T14:20:45.743Z,1013.36
2018-07-14T14:22:43.695Z,1013.31
2018-07-14T14:23:41.692Z,1013.27
2018-07-14T14:25:38.660Z,1013.29
2018-07-14T14:26:37.669Z,1013.29
2018-07-14T14:28:33.127Z,1013.26
2018-07-14T14:29:32.136Z,1013.26
2018-07-14T14:31:28.095Z,1013.20
2018-07-14T14:32:28.110Z,1013.20
2018-07-14T14:34:25.065Z,1013.15
2018-07-14T14:35:24.998Z,1013.17
2018-07-14T14:37:21.038Z,1013.15
2018-07-14T14:38:20.045Z,1013.13
2018-07-14T14:40:15.523Z,1013.14
2018-07-14T14:41:15.507Z,1013.12
2018-07-14T14:43:10.819Z,1013.15
2018-07-14T14:44:10.407Z,1013.15
2018-07-14T14:46:08.374Z,1013.14
2018-07-14T14:47:06.455Z,1013.15
2018-07-14T14:49:00.916Z,1013.12
2018-07-14T14:50:00.919Z,1013.15
2018-07-14T14:51:57.809Z,1013.12
2018-07-14T14:52:56.877Z,1013.12
2018-07-14T14:54:52.866Z,1013.11
2018-07-14T14:55:52.847Z,1013.06
2018-07-14T14:57:48.830Z,1013.08
2018-07-14T14:58:48.854Z,1013.05
2018-07-14T15:00:45.310Z,1013.07
2018-07-14T15:01:45.302Z,1013.06
2018-07-14T15:03:38.266Z,1013.11
2018-07-14T15:04:38.318Z,1013.11
2018-07-14T15:06:34.259Z,1013.05
2018-07-14T15:07:34.262Z,1013.09
2018-07-14T15:09:30.202Z,1013.09
2018-07-14T15:10:30.227Z,1013.11
2018-07-14T15:12:24.708Z,1013.04
2018-07-14T15:13:24.708Z,1013.03
2018-07-14T15:15:20.666Z,1012.96
2018-07-14T15:16:20.675Z,1012.95
2018-07-14T15:18:19.633Z,1013.00
2018-07-14T15:19:16.673Z,1012.95
2018-07-14T15:21:12.681Z,1012.95
2018-07-14T15:22:12.655Z,1012.96
2018-07-14T15:24:10.119Z,1012.92
2018-07-14T15:25:08.629Z,1012.96
2018-07-14T15:27:03.108Z,1012.96
2018-07-14T15:28:04.023Z,1012.96
2018-07-14T15:29:58.032Z,1012.94
2018-07-14T15:30:57.543Z,1012.98
2018-07-14T15:32:53.605Z,1012.92
2018-07-14T15:33:54.520Z,1013.01
2018-07-14T15:35:50.022Z,1012.96
2018-07-14T15:36:49.542Z,1012.94
2018-07-14T15:38:43.984Z,1012.97
2018-07-14T15:39:43.974Z,1012.96
2018-07-14T15:41:39.965Z,1013.00
2018-07-14T15:42:39.946Z,1012.96
2018-07-14T15:44:36.422Z,1012.92
2018-07-14T15:45:36.426Z,1012.91
2018-07-14T15:47:31.855Z,1012.98
2018-07-14T15:48:31.877Z,1012.98
2018-07-14T15:50:28.354Z,1012.92
2018-07-14T15:51:28.358Z,1012.96
2018-07-14T15:53:22.296Z,1012.96
2018-07-14T15:54:23.304Z,1012.95
2018-07-14T15:56:18.284Z,1012.94
2018-07-14T15:57:18.257Z,1012.94
2018-07-14T15:59:15.224Z,1012.93
2018-07-14T16:00:15.294Z,1012.90
2018-07-14T16:02:11.210Z,1012.87
2018-07-14T16:03:11.203Z,1012.86
2018-07-14T16:05:06.927Z,1012.89
2018-07-14T16:06:06.663Z,1012.90
2018-07-14T16:08:00.702Z,1012.93
2018-07-14T16:09:01.666Z,1012.92
2018-07-14T16:10:56.656Z,1012.90
2018-07-14T16:11:57.640Z,1012.90
2018-07-14T16:13:53.600Z,1012.87
2018-07-14T16:14:53.100Z,1012.78
2018-07-14T16:16:50.575Z,1012.89
2018-07-14T16:17:48.572Z,1012.90
2018-07-14T16:19:46.021Z,1012.85
2018-07-14T16:20:44.525Z,1012.91
2018-07-14T16:22:41.479Z,1012.89
2018-07-14T16:23:40.501Z,1012.89
2018-07-14T16:25:38.680Z,1012.84
2018-07-14T16:26:38.652Z,1012.83
2018-07-14T16:28:33.173Z,1012.88
2018-07-14T16:29:33.157Z,1012.86
2018-07-14T16:31:29.628Z,1012.86
2018-07-14T16:32:29.112Z,1012.84
2018-07-14T16:34:25.575Z,1012.86
2018-07-14T16:35:25.083Z,1012.90
2018-07-14T16:37:21.066Z,1012.86
2018-07-14T16:38:21.052Z,1012.90
2018-07-14T16:40:22.020Z,1013.07
2018-07-14T16:41:21.525Z,1013.19
2018-07-14T16:43:17.512Z,1013.25
2018-07-14T16:44:17.489Z,1013.24
2018-07-14T16:46:13.470Z,1013.22
2018-07-14T16:47:13.455Z,1013.21
2018-07-14T16:49:07.929Z,1013.20
2018-07-14T16:50:07.923Z,1013.21
2018-07-14T16:52:02.374Z,1013.19
2018-07-14T16:53:02.380Z,1013.18
2018-07-14T16:54:58.418Z,1013.19
2018-07-14T16:55:58.441Z,1013.14
2018-07-14T16:57:52.926Z,1013.16
2018-07-14T16:58:53.411Z,1013.04
2018-07-14T17:00:48.854Z,1012.85
2018-07-14T17:01:48.893Z,1012.74
2018-07-14T17:03:44.856Z,1012.78
2018-07-14T17:04:44.928Z,1012.67
2018-07-14T17:06:42.302Z,1012.70
2018-07-14T17:07:40.784Z,1012.71
2018-07-14T17:09:36.782Z,1012.70
2018-07-14T17:10:37.044Z,1012.69
2018-07-14T17:12:34.757Z,1012.73
2018-07-14T17:13:32.759Z,1012.66
2018-07-14T17:15:29.237Z,1012.70
2018-07-14T17:16:28.737Z,1012.70
2018-07-14T17:18:25.708Z,1012.66
2018-07-14T17:20:41.298Z,1012.63
2018-07-14T17:21:40.703Z,1012.66
2018-07-14T17:23:37.669Z,1012.61
2018-07-14T17:24:36.686Z,1012.58
2018-07-14T17:26:32.660Z,1012.54
2018-07-14T17:27:33.146Z,1012.57
2018-07-14T17:29:28.612Z,1012.55
2018-07-14T17:30:28.598Z,1012.57
2018-07-14T17:32:25.087Z,1012.57
2018-07-14T17:33:24.554Z,1012.59
2018-07-14T17:35:20.546Z,1012.52
2018-07-14T17:36:20.533Z,1012.53
2018-07-14T17:38:17.499Z,1012.48
2018-07-14T17:39:16.501Z,1012.57
2018-07-14T17:41:10.955Z,1012.50
2018-07-14T17:42:10.983Z,1012.47
2018-07-14T17:44:06.949Z,1012.47
2018-07-14T17:45:06.941Z,1012.45
2018-07-14T17:47:01.378Z,1012.50
2018-07-14T17:48:01.391Z,1012.45
2018-07-14T17:49:56.358Z,1012.49